Stamey Branch, North Carolina
Current Conditions -  °F | °C
As of 1:35 PM on Monday 26 Jan 2015 (Local Time) from KTNB Reporting Station
Light Snow Light Snow  
Wind Chill: 23°   Ceiling: 6000
Heat Index: 35°   Visibility: 5mi
Dew Point: 31°   Wind: 23mph
Humidity: 86%   Direction: 310°NW
Pressure: 29.61"   Gusts: 33mph
Location:  36.0227°N, 81.9499°W
Report Text: KTNB 261835Z AUTO 31020G29KT 5SM -SN SCT012 BKN060 BKN070 02/00 A2961 RMK AO2 T00181003
Loading
Personal Weather Stations






























Interactive Weather Map New forecast layout! Learn more

10-Day Weather Forecast

Advertisements
Track Severe Weather on mobile